Welcome to Northern Hawkes Bay. New Zealand.
PWS Header
      nz Flag



Hit Counter


W3C Valid W3C Valid logo


    Wairoa

Select any of the Stations below to visit their websites.










Historic Data from Weather Underground
Select the location of interest below. Wairoa is the default. Please have patience, this Data is slow to load in.
Northern Hawkes Bay Historical Data
Daily Summary for March 15, 2018 Units:  Both    English   Metric
« Previous Day
Next Day »
Daily Weekly Monthly Yearly Custom
  High: Low: Average:
Temperature: 77 °F /  25.0 °C 50.7 °F /  10.4 °C 63.5 °F /  17.5 °C
Dew Point: 57.6 °F /  14.2 °C 50.5 °F /  10.3 °C 54 °F /  12.2 °C
Humidity: 99% 46% 74%
Wind Speed: 9.2mph /  14.8km/h - 2.2mph /  3.5km/h
Wind Gust: 16.8mph /  27.0km/h - -
Wind- - West
Pressure: 30.1 in /  1019.5 hPa 29.9 in /  1013.8 hPa -
Precipitation: 0 in /  0.0 mm    
Historical Graphs
 
 
Tabular Data for March 15, 2018
Time Temperature Dew Point Pressure Wind Wind Speed Wind Gust Humidity Rainfall Rate (Hourly) solar
00:04 57.4 °F /  14.1 °C 55.9 °F /  13.3 °C 30.1in /  1018.8hPa Calm   0.7mph /  1.1km/h 95% 0in /  0.0mm 0 W/m2
00:08 57.2 °F /  14.0 °C 55.8 °F /  13.2 °C 30.1in /  1018.8hPa Calm   0.7mph /  1.1km/h 95% 0in /  0.0mm 0 W/m2
00:14 57.2 °F /  14.0 °C 55.8 °F /  13.2 °C 30.1in /  1018.8hPa Calm   0.7mph /  1.1km/h 95% 0in /  0.0mm 0 W/m2
00:19 57.2 °F /  14.0 °C 55.8 °F /  13.2 °C 30.1in /  1018.8hPa Calm   0.7mph /  1.1km/h 95% 0in /  0.0mm 0 W/m2
00:24 57.2 °F /  14.0 °C 55.8 °F /  13.2 °C 30.1in /  1018.8hPa Calm   0.7mph /  1.1km/h 95% 0in /  0.0mm 0 W/m2
00:28 57.2 °F /  14.0 °C 55.8 °F /  13.2 °C 30.1in /  1018.8hPa Calm   1.6mph /  2.6km/h 95% 0in /  0.0mm 0 W/m2
00:33 57.2 °F /  14.0 °C 55.8 °F /  13.2 °C 30.1in /  1018.8hPa Calm   1.6mph /  2.6km/h 95% 0in /  0.0mm 0 W/m2
00:39 56.8 °F /  13.8 °C 55.8 °F /  13.2 °C 30.1in /  1018.8hPa Calm   0.7mph /  1.1km/h 96% 0in /  0.0mm 0 W/m2
00:44 56.7 °F /  13.7 °C 55.6 °F /  13.1 °C 30.1in /  1018.8hPa Calm   0.7mph /  1.1km/h 96% 0in /  0.0mm 0 W/m2
00:48 56.7 °F /  13.7 °C 55.6 °F /  13.1 °C 30.1in /  1018.8hPa Calm   0.7mph /  1.1km/h 96% 0in /  0.0mm 0 W/m2
00:53 56.3 °F /  13.5 °C 55.2 °F /  12.9 °C 30.1in /  1019.2hPa Calm   0.7mph /  1.1km/h 96% 0in /  0.0mm 0 W/m2
00:59 55.9 °F /  13.3 °C 54.9 °F /  12.7 °C 30.1in /  1018.8hPa Calm     96% 0in /  0.0mm 0 W/m2
01:03 55.8 °F /  13.2 °C 54.7 °F /  12.6 °C 30.1in /  1018.8hPa Calm     96% 0in /  0.0mm 0 W/m2
01:09 55.6 °F /  13.1 °C 54.5 °F /  12.5 °C 30.1in /  1019.2hPa Calm     96% 0in /  0.0mm 0 W/m2
01:14 55.6 °F /  13.1 °C 54.5 °F /  12.5 °C 30.1in /  1019.2hPa Calm     96% 0in /  0.0mm 0 W/m2
01:18 55.4 °F /  13.0 °C 54.3 °F /  12.4 °C 30.1in /  1019.2hPa Calm     96% 0in /  0.0mm 0 W/m2
01:23 55.2 °F /  12.9 °C 54.3 °F /  12.4 °C 30.1in /  1019.2hPa Calm   0.7mph /  1.1km/h 97% 0in /  0.0mm 0 W/m2
01:29 55 °F /  12.8 °C 54.1 °F /  12.3 °C 30.1in /  1019.2hPa Calm   0.7mph /  1.1km/h 97% 0in /  0.0mm 0 W/m2
01:34 54.9 °F /  12.7 °C 54 °F /  12.2 °C 30.1in /  1019.2hPa Calm     97% 0in /  0.0mm 0 W/m2
01:38 54.7 °F /  12.6 °C 54 °F /  12.2 °C 30.1in /  1019.5hPa Calm     97% 0in /  0.0mm 0 W/m2
01:43 54.7 °F /  12.6 °C 54 °F /  12.2 °C 30.1in /  1019.2hPa Calm     97% 0in /  0.0mm 0 W/m2
01:49 54.3 °F /  12.4 °C 53.4 °F /  11.9 °C 30.1in /  1019.2hPa Calm     97% 0in /  0.0mm 0 W/m2
01:54 54.1 °F /  12.3 °C 53.2 °F /  11.8 °C 30.1in /  1019.5hPa Calm     97% 0in /  0.0mm 0 W/m2
01:58 54.1 °F /  12.3 °C 53.2 °F /  11.8 °C 30.1in /  1019.5hPa Calm     97% 0in /  0.0mm 0 W/m2
02:03 54 °F /  12.2 °C 53.1 °F /  11.7 °C 30.1in /  1019.5hPa Calm     97% 0in /  0.0mm 0 W/m2
02:09 54 °F /  12.2 °C 53.1 °F /  11.7 °C 30.1in /  1019.5hPa Calm     97% 0in /  0.0mm 0 W/m2
02:14 53.8 °F /  12.1 °C 53.1 °F /  11.7 °C 30.1in /  1019.5hPa Calm     97% 0in /  0.0mm 0 W/m2
02:19 53.6 °F /  12.0 °C 52.9 °F /  11.6 °C 30.1in /  1019.2hPa Calm     97% 0in /  0.0mm 0 W/m2
02:23 53.6 °F /  12.0 °C 52.9 °F /  11.6 °C 30.1in /  1019.2hPa Calm     97% 0in /  0.0mm 0 W/m2
02:29 53.4 °F /  11.9 °C 52.9 °F /  11.6 °C 30.1in /  1019.2hPa Calm     98% 0in /  0.0mm 0 W/m2
02:34 53.2 °F /  11.8 °C 52.7 °F /  11.5 °C 30.1in /  1019.2hPa Calm     98% 0in /  0.0mm 0 W/m2
02:38 53.2 °F /  11.8 °C 52.7 °F /  11.5 °C 30.1in /  1019.2hPa NW 1.6mph /  2.6km/h 2.2mph /  3.5km/h 98% 0in /  0.0mm 0 W/m2
02:43 53.2 °F /  11.8 °C 52.7 °F /  11.5 °C 30.1in /  1019.2hPa NNW 0.7mph /  1.1km/h 2.2mph /  3.5km/h 98% 0in /  0.0mm 0 W/m2
02:48 53.2 °F /  11.8 °C 52.7 °F /  11.5 °C 30.1in /  1019.2hPa Calm   2.2mph /  3.5km/h 98% 0in /  0.0mm 0 W/m2
02:53 53.2 °F /  11.8 °C 52.7 °F /  11.5 °C 30.1in /  1019.5hPa Calm   3.1mph /  5.0km/h 98% 0in /  0.0mm 0 W/m2
02:58 53.2 °F /  11.8 °C 52.7 °F /  11.5 °C 30.1in /  1019.2hPa NNW 1.6mph /  2.6km/h 3.8mph /  6.1km/h 98% 0in /  0.0mm 0 W/m2
03:03 53.2 °F /  11.8 °C 52.7 °F /  11.5 °C 30.1in /  1018.8hPa Calm   3.8mph /  6.1km/h 98% 0in /  0.0mm 0 W/m2
03:08 53.2 °F /  11.8 °C 52.7 °F /  11.5 °C 30.1in /  1018.8hPa Calm   3.8mph /  6.1km/h 98% 0in /  0.0mm 0 W/m2
03:13 53.4 °F /  11.9 °C 52.9 °F /  11.6 °C 30.1in /  1018.8hPa NNW 1.6mph /  2.6km/h 3.1mph /  5.0km/h 98% 0in /  0.0mm 0 W/m2
03:19 53.6 °F /  12.0 °C 52.9 °F /  11.6 °C 30.1in /  1018.8hPa Calm   3.8mph /  6.1km/h 97% 0in /  0.0mm 0 W/m2
03:23 53.6 °F /  12.0 °C 52.9 °F /  11.6 °C 30.1in /  1018.8hPa Calm   3.8mph /  6.1km/h 97% 0in /  0.0mm 0 W/m2
03:28 53.8 °F /  12.1 °C 53.1 °F /  11.7 °C 30.1in /  1018.8hPa Calm   1.6mph /  2.6km/h 97% 0in /  0.0mm 0 W/m2
03:33 53.8 °F /  12.1 °C 53.1 °F /  11.7 °C 30.1in /  1018.8hPa Calm   0.7mph /  1.1km/h 97% 0in /  0.0mm 0 W/m2
03:39 53.8 °F /  12.1 °C 53.1 °F /  11.7 °C 30.1in /  1018.8hPa NNW 1.6mph /  2.6km/h 4.5mph /  7.2km/h 97% 0in /  0.0mm 0 W/m2
03:44 53.8 °F /  12.1 °C 53.1 °F /  11.7 °C 30.1in /  1018.8hPa NNW 2.2mph /  3.5km/h 4.5mph /  7.2km/h 97% 0in /  0.0mm 0 W/m2
03:48 53.6 °F /  12.0 °C 52.9 °F /  11.6 °C 30.1in /  1018.8hPa Calm   3.1mph /  5.0km/h 97% 0in /  0.0mm 0 W/m2
03:53 53.4 °F /  11.9 °C 52.9 °F /  11.6 °C 30.1in /  1018.8hPa Calm   3.1mph /  5.0km/h 98% 0in /  0.0mm 0 W/m2
03:58 53.2 °F /  11.8 °C 52.7 °F /  11.5 °C 30.1in /  1018.5hPa Calm   2.2mph /  3.5km/h 98% 0in /  0.0mm 0 W/m2
04:03 53.1 °F /  11.7 °C 52.5 °F /  11.4 °C 30.1in /  1018.5hPa Calm   2.2mph /  3.5km/h 98% 0in /  0.0mm 0 W/m2
04:09 52.9 °F /  11.6 °C 52.3 °F /  11.3 °C 30.1in /  1018.2hPa Calm   3.1mph /  5.0km/h 98% 0in /  0.0mm 0 W/m2
04:14 52.9 °F /  11.6 °C 52.3 °F /  11.3 °C 30.1in /  1018.5hPa NNW 1.6mph /  2.6km/h 3.1mph /  5.0km/h 98% 0in /  0.0mm 0 W/m2
04:18 52.7 °F /  11.5 °C 52.2 °F /  11.2 °C 30.1in /  1018.5hPa Calm   2.2mph /  3.5km/h 98% 0in /  0.0mm 0 W/m2
04:23 52.5 °F /  11.4 °C 52 °F /  11.1 °C 30.1in /  1018.2hPa NW 2.2mph /  3.5km/h 4.5mph /  7.2km/h 98% 0in /  0.0mm 0 W/m2
04:28 52.5 °F /  11.4 °C 52 °F /  11.1 °C 30.1in /  1018.2hPa NW 1.6mph /  2.6km/h 4.5mph /  7.2km/h 98% 0in /  0.0mm 0 W/m2
04:33 52.3 °F /  11.3 °C 51.8 °F /  11.0 °C 30.1in /  1018.2hPa NW 0.7mph /  1.1km/h 4.5mph /  7.2km/h 98% 0in /  0.0mm 0 W/m2
04:38 52.3 °F /  11.3 °C 51.8 °F /  11.0 °C 30.1in /  1018.2hPa NW 1.6mph /  2.6km/h 4.5mph /  7.2km/h 98% 0in /  0.0mm 0 W/m2
04:43 52.3 °F /  11.3 °C 51.8 °F /  11.0 °C 30.1in /  1018.2hPa NW 0.7mph /  1.1km/h 4.5mph /  7.2km/h 98% 0in /  0.0mm 0 W/m2
04:49 52.3 °F /  11.3 °C 51.8 °F /  11.0 °C 30.1in /  1018.2hPa NNW 1.6mph /  2.6km/h 4.5mph /  7.2km/h 98% 0in /  0.0mm 0 W/m2
04:54 52.3 °F /  11.3 °C 51.8 °F /  11.0 °C 30.1in /  1018.2hPa Calm   3.8mph /  6.1km/h 98% 0in /  0.0mm 0 W/m2
04:58 52.2 °F /  11.2 °C 51.6 °F /  10.9 °C 30.1in /  1018.2hPa NW 1.6mph /  2.6km/h 4.5mph /  7.2km/h 98% 0in /  0.0mm 0 W/m2
05:03 52.2 °F /  11.2 °C 51.6 °F /  10.9 °C 30.1in /  1018.2hPa NW 1.6mph /  2.6km/h 4.5mph /  7.2km/h 98% 0in /  0.0mm 0 W/m2
05:09 52.2 °F /  11.2 °C 51.6 °F /  10.9 °C 30.1in /  1017.8hPa NW 1.6mph /  2.6km/h 4.5mph /  7.2km/h 98% 0in /  0.0mm 0 W/m2
05:13 52 °F /  11.1 °C 51.4 °F /  10.8 °C 30.1in /  1017.8hPa NW 1.6mph /  2.6km/h 4.5mph /  7.2km/h 98% 0in /  0.0mm 0 W/m2
05:18 51.8 °F /  11.0 °C 51.3 °F /  10.7 °C 30.1in /  1017.8hPa NW 3.1mph /  5.0km/h 4.5mph /  7.2km/h 98% 0in /  0.0mm 0 W/m2
05:23 52 °F /  11.1 °C 51.4 °F /  10.8 °C 30.1in /  1017.8hPa NNW 3.1mph /  5.0km/h 6.9mph /  11.1km/h 98% 0in /  0.0mm 0 W/m2
05:28 52.2 °F /  11.2 °C 51.6 °F /  10.9 °C 30.1in /  1017.8hPa NNW 2.2mph /  3.5km/h 6.9mph /  11.1km/h 98% 0in /  0.0mm 0 W/m2
05:33 52 °F /  11.1 °C 51.4 °F /  10.8 °C 30.1in /  1017.8hPa NW 3.1mph /  5.0km/h 6mph /  9.7km/h 98% 0in /  0.0mm 0 W/m2
05:38 52 °F /  11.1 °C 51.4 °F /  10.8 °C 30.1in /  1017.8hPa NNW 3.8mph /  6.1km/h 6mph /  9.7km/h 98% 0in /  0.0mm 0 W/m2
05:43 52 °F /  11.1 °C 51.4 °F /  10.8 °C 30.1in /  1017.8hPa NNW 3.1mph /  5.0km/h 6.9mph /  11.1km/h 98% 0in /  0.0mm 0 W/m2
05:48 52 °F /  11.1 °C 51.4 °F /  10.8 °C 30.1in /  1018.2hPa NNW 3.1mph /  5.0km/h 7.6mph /  12.2km/h 98% 0in /  0.0mm 0 W/m2
05:53 51.8 °F /  11.0 °C 51.3 °F /  10.7 °C 30.1in /  1017.8hPa NNW 3.1mph /  5.0km/h 7.6mph /  12.2km/h 98% 0in /  0.0mm 0 W/m2
05:58 51.8 °F /  11.0 °C 51.3 °F /  10.7 °C 30.1in /  1017.8hPa NNW 2.2mph /  3.5km/h 6mph /  9.7km/h 98% 0in /  0.0mm 0 W/m2
06:03 51.8 °F /  11.0 °C 51.3 °F /  10.7 °C 30.1in /  1017.8hPa NNW 3.1mph /  5.0km/h 6mph /  9.7km/h 98% 0in /  0.0mm 0 W/m2
06:08 51.8 °F /  11.0 °C 51.3 °F /  10.7 °C 30.1in /  1017.8hPa NNW 3.1mph /  5.0km/h 6.9mph /  11.1km/h 98% 0in /  0.0mm 0 W/m2
06:13 51.8 °F /  11.0 °C 51.3 °F /  10.7 °C 30.1in /  1017.8hPa NNW 1.6mph /  2.6km/h 6.9mph /  11.1km/h 98% 0in /  0.0mm 0 W/m2
06:18 51.4 °F /  10.8 °C 51.3 °F /  10.7 °C 30.1in /  1017.8hPa NNW 1.6mph /  2.6km/h 5.4mph /  8.7km/h 99% 0in /  0.0mm 0 W/m2
06:23 51.3 °F /  10.7 °C 51.1 °F /  10.6 °C 30.1in /  1017.8hPa NNW 0.7mph /  1.1km/h 4.5mph /  7.2km/h 99% 0in /  0.0mm 0 W/m2
06:28 51.3 °F /  10.7 °C 51.1 °F /  10.6 °C 30.1in /  1017.8hPa NNW 2.2mph /  3.5km/h 4.5mph /  7.2km/h 99% 0in /  0.0mm 0 W/m2
06:33 51.1 °F /  10.6 °C 50.7 °F /  10.4 °C 30.1in /  1017.8hPa NNW 1.6mph /  2.6km/h 3.8mph /  6.1km/h 99% 0in /  0.0mm 0 W/m2
06:38 51.1 °F /  10.6 °C 50.7 °F /  10.4 °C 30.1in /  1017.8hPa NW 1.6mph /  2.6km/h 3.8mph /  6.1km/h 99% 0in /  0.0mm 0 W/m2
06:43 50.9 °F /  10.5 °C 50.5 °F /  10.3 °C 30.1in /  1017.8hPa NNW 3.1mph /  5.0km/h 4.5mph /  7.2km/h 99% 0in /  0.0mm 0 W/m2
06:48 50.9 °F /  10.5 °C 50.5 °F /  10.3 °C 30.1in /  1017.8hPa NNW 3.1mph /  5.0km/h 4.5mph /  7.2km/h 99% 0in /  0.0mm 0 W/m2
06:53 50.9 °F /  10.5 °C 50.5 °F /  10.3 °C 30.1in /  1018.2hPa NNW 3.1mph /  5.0km/h 4.5mph /  7.2km/h 99% 0in /  0.0mm 0 W/m2
06:58 50.7 °F /  10.4 °C 50.5 °F /  10.3 °C 30.1in /  1018.2hPa NNW 3.1mph /  5.0km/h 5.4mph /  8.7km/h 99% 0in /  0.0mm 0 W/m2
07:03 50.7 °F /  10.4 °C 50.5 °F /  10.3 °C 30.1in /  1017.8hPa NNW 3.1mph /  5.0km/h 5.4mph /  8.7km/h 99% 0in /  0.0mm 0 W/m2
07:08 50.7 °F /  10.4 °C 50.5 °F /  10.3 °C 30.1in /  1017.8hPa NW 3.1mph /  5.0km/h 5.4mph /  8.7km/h 99% 0in /  0.0mm 0 W/m2
07:13 50.7 °F /  10.4 °C 50.5 °F /  10.3 °C 30.1in /  1017.8hPa NNW 2.2mph /  3.5km/h 4.5mph /  7.2km/h 99% 0in /  0.0mm 3 W/m2
07:18 50.7 °F /  10.4 °C 50.5 °F /  10.3 °C 30.1in /  1017.8hPa NNW 1.6mph /  2.6km/h 5.4mph /  8.7km/h 99% 0in /  0.0mm 7 W/m2
07:23 50.9 °F /  10.5 °C 50.5 °F /  10.3 °C 30.1in /  1017.5hPa NNW 3.1mph /  5.0km/h 5.4mph /  8.7km/h 99% 0in /  0.0mm 11 W/m2
07:28 51.3 °F /  10.7 °C 51.1 °F /  10.6 °C 30.1in /  1017.8hPa NW 3.1mph /  5.0km/h 5.4mph /  8.7km/h 99% 0in /  0.0mm 17 W/m2
07:33 51.3 °F /  10.7 °C 51.1 °F /  10.6 °C 30.1in /  1017.5hPa NW 3.1mph /  5.0km/h 5.4mph /  8.7km/h 99% 0in /  0.0mm 25 W/m2
07:38 51.4 °F /  10.8 °C 51.3 °F /  10.7 °C 30.1in /  1017.8hPa NW 3.1mph /  5.0km/h 5.4mph /  8.7km/h 99% 0in /  0.0mm 23 W/m2
07:43 51.4 °F /  10.8 °C 51.3 °F /  10.7 °C 30.1in /  1017.8hPa NW 3.1mph /  5.0km/h 5.4mph /  8.7km/h 99% 0in /  0.0mm 25 W/m2
07:48 51.6 °F /  10.9 °C 51.4 °F /  10.8 °C 30.1in /  1017.8hPa NW 2.2mph /  3.5km/h 6.9mph /  11.1km/h 99% 0in /  0.0mm 39 W/m2
07:53 52 °F /  11.1 °C 51.4 °F /  10.8 °C 30.1in /  1017.8hPa NNW 8.3mph /  13.4km/h 9.8mph /  15.8km/h 98% 0in /  0.0mm 95 W/m2
07:58 52.7 °F /  11.5 °C 52.2 °F /  11.2 °C 30.1in /  1017.8hPa NNW 4.5mph /  7.2km/h 10.7mph /  17.2km/h 98% 0in /  0.0mm 90 W/m2
08:03 53.1 °F /  11.7 °C 52.5 °F /  11.4 °C 30.1in /  1017.8hPa NW 3.1mph /  5.0km/h 10.7mph /  17.2km/h 98% 0in /  0.0mm 122 W/m2
08:08 53.8 °F /  12.1 °C 53.1 °F /  11.7 °C 30.1in /  1017.8hPa NW 3.8mph /  6.1km/h 8.3mph /  13.4km/h 97% 0in /  0.0mm 138 W/m2
08:13 54.7 °F /  12.6 °C 54 °F /  12.2 °C 30.1in /  1017.8hPa NNW 3.8mph /  6.1km/h 7.6mph /  12.2km/h 97% 0in /  0.0mm 119 W/m2
08:18 55.2 °F /  12.9 °C 54.3 °F /  12.4 °C 30.1in /  1018.2hPa NNW 4.5mph /  7.2km/h 8.3mph /  13.4km/h 97% 0in /  0.0mm 133 W/m2
08:23 55.6 °F /  13.1 °C 55.2 °F /  12.9 °C 30.1in /  1017.8hPa NNW 4.5mph /  7.2km/h 8.3mph /  13.4km/h 99% 0in /  0.0mm 195 W/m2
08:28 55.9 °F /  13.3 °C 54.9 °F /  12.7 °C 30.1in /  1018.2hPa NNW 3.8mph /  6.1km/h 9.8mph /  15.8km/h 96% 0in /  0.0mm 109 W/m2
08:33 55.8 °F /  13.2 °C 54.3 °F /  12.4 °C 30.1in /  1018.2hPa NNW 5.4mph /  8.7km/h 9.8mph /  15.8km/h 95% 0in /  0.0mm 85 W/m2
08:38 55.8 °F /  13.2 °C 54.1 °F /  12.3 °C 30.1in /  1018.2hPa North 3.1mph /  5.0km/h 8.3mph /  13.4km/h 94% 0in /  0.0mm 156 W/m2
08:43 56.5 °F /  13.6 °C 54.9 °F /  12.7 °C 30.1in /  1018.2hPa NNW 4.5mph /  7.2km/h 6.9mph /  11.1km/h 94% 0in /  0.0mm 220 W/m2
08:48 57.2 °F /  14.0 °C 54.9 °F /  12.7 °C 30.1in /  1018.2hPa NW 3.8mph /  6.1km/h 7.6mph /  12.2km/h 92% 0in /  0.0mm 186 W/m2
08:53 57.6 °F /  14.2 °C 54.7 °F /  12.6 °C 30.1in /  1018.5hPa NNW 5.4mph /  8.7km/h 8.3mph /  13.4km/h 90% 0in /  0.0mm 155 W/m2
08:58 57.4 °F /  14.1 °C 54.5 °F /  12.5 °C 30.1in /  1018.2hPa NNW 3.8mph /  6.1km/h 8.3mph /  13.4km/h 90% 0in /  0.0mm 177 W/m2
09:03 58.1 °F /  14.5 °C 55.2 °F /  12.9 °C 30.1in /  1018.2hPa North 4.5mph /  7.2km/h 8.3mph /  13.4km/h 90% 0in /  0.0mm 208 W/m2
09:08 58.6 °F /  14.8 °C 55.4 °F /  13.0 °C 30.1in /  1018.2hPa North 3.1mph /  5.0km/h 6.9mph /  11.1km/h 89% 0in /  0.0mm 151 W/m2
09:13 58.6 °F /  14.8 °C 55 °F /  12.8 °C 30.1in /  1018.2hPa North 3.8mph /  6.1km/h 6.9mph /  11.1km/h 88% 0in /  0.0mm 168 W/m2
09:18 59.2 °F /  15.1 °C 55.2 °F /  12.9 °C 30.1in /  1018.2hPa NNW 4.5mph /  7.2km/h 6.9mph /  11.1km/h 87% 0in /  0.0mm 247 W/m2
09:23 59.9 °F /  15.5 °C 55.8 °F /  13.2 °C 30.1in /  1018.2hPa NNW 3.1mph /  5.0km/h 6.9mph /  11.1km/h 86% 0in /  0.0mm 235 W/m2
09:28 61 °F /  16.1 °C 56.1 °F /  13.4 °C 30.1in /  1018.2hPa NNW 3.8mph /  6.1km/h 6.9mph /  11.1km/h 84% 0in /  0.0mm 274 W/m2
09:33 61.5 °F /  16.4 °C 55.9 °F /  13.3 °C 30.1in /  1018.5hPa NNW 2.2mph /  3.5km/h 6.9mph /  11.1km/h 82% 0in /  0.0mm 220 W/m2
09:38 62.2 °F /  16.8 °C 56.5 °F /  13.6 °C 30.1in /  1018.5hPa NNW 2.2mph /  3.5km/h 6.9mph /  11.1km/h 81% 0in /  0.0mm 250 W/m2
09:43 62.8 °F /  17.1 °C 55.8 °F /  13.2 °C 30.1in /  1018.5hPa North 0.7mph /  1.1km/h 6.9mph /  11.1km/h 78% 0in /  0.0mm 243 W/m2
09:48 63.7 °F /  17.6 °C 55.9 °F /  13.3 °C 30.1in /  1018.5hPa NNE 3.8mph /  6.1km/h 5.4mph /  8.7km/h 76% 0in /  0.0mm 276 W/m2
09:53 64.2 °F /  17.9 °C 56.1 °F /  13.4 °C 30.1in /  1018.2hPa NNE 2.2mph /  3.5km/h 5.4mph /  8.7km/h 75% 0in /  0.0mm 254 W/m2
09:58 64.8 °F /  18.2 °C 56.7 °F /  13.7 °C 30.1in /  1018.5hPa NNW 1.6mph /  2.6km/h 5.4mph /  8.7km/h 75% 0in /  0.0mm 289 W/m2
10:03 65.1 °F /  18.4 °C 56.3 °F /  13.5 °C 30.1in /  1018.2hPa North 3.8mph /  6.1km/h 5.4mph /  8.7km/h 73% 0in /  0.0mm 315 W/m2
10:08 66.4 °F /  19.1 °C 57.6 °F /  14.2 °C 30.1in /  1018.2hPa North 2.2mph /  3.5km/h 5.4mph /  8.7km/h 73% 0in /  0.0mm 352 W/m2
10:13 66.7 °F /  19.3 °C 56.3 °F /  13.5 °C 30.1in /  1018.2hPa NNW 2.2mph /  3.5km/h 6mph /  9.7km/h 69% 0in /  0.0mm 329 W/m2
10:18 66.7 °F /  19.3 °C 55.6 °F /  13.1 °C 30.1in /  1018.2hPa North 3.8mph /  6.1km/h 8.3mph /  13.4km/h 67% 0in /  0.0mm 343 W/m2
10:23 67.1 °F /  19.5 °C 55.8 °F /  13.2 °C 30.1in /  1018.2hPa NNE 3.8mph /  6.1km/h 8.3mph /  13.4km/h 67% 0in /  0.0mm 284 W/m2
10:28 68 °F /  20.0 °C 55.8 °F /  13.2 °C 30.1in /  1018.2hPa NNE 3.8mph /  6.1km/h 8.3mph /  13.4km/h 65% 0in /  0.0mm 415 W/m2
10:33 68.4 °F /  20.2 °C 55.8 °F /  13.2 °C 30.1in /  1018.2hPa North 2.2mph /  3.5km/h 8.3mph /  13.4km/h 64% 0in /  0.0mm 367 W/m2
10:38 68.9 °F /  20.5 °C 55.8 °F /  13.2 °C 30.1in /  1018.2hPa NNE 2.2mph /  3.5km/h 6.9mph /  11.1km/h 63% 0in /  0.0mm 401 W/m2
10:43 69.6 °F /  20.9 °C 56.8 °F /  13.8 °C 30.1in /  1018.2hPa NNE 3.1mph /  5.0km/h 6.9mph /  11.1km/h 64% 0in /  0.0mm 412 W/m2
10:48 70 °F /  21.1 °C 54.7 °F /  12.6 °C 30.1in /  1018.2hPa NNE 2.2mph /  3.5km/h 6mph /  9.7km/h 58% 0in /  0.0mm 375 W/m2
10:53 70.3 °F /  21.3 °C 54.9 °F /  12.7 °C 30.1in /  1018.2hPa North 0.7mph /  1.1km/h 6.9mph /  11.1km/h 58% 0in /  0.0mm 155 W/m2
10:58 70.5 °F /  21.4 °C 55 °F /  12.8 °C 30.1in /  1018.2hPa North 1.6mph /  2.6km/h 6.9mph /  11.1km/h 58% 0in /  0.0mm 401 W/m2
11:03 70.9 °F /  21.6 °C 55.4 °F /  13.0 °C 30.1in /  1018.2hPa North 3.1mph /  5.0km/h 7.6mph /  12.2km/h 58% 0in /  0.0mm 189 W/m2
11:08 71.1 °F /  21.7 °C 54.7 °F /  12.6 °C 30.1in /  1018.2hPa North 3.8mph /  6.1km/h 8.3mph /  13.4km/h 56% 0in /  0.0mm 298 W/m2
11:13 70.9 °F /  21.6 °C 54.9 °F /  12.7 °C 30.1in /  1018.2hPa North 4.5mph /  7.2km/h 8.3mph /  13.4km/h 57% 0in /  0.0mm 226 W/m2
11:18 71.4 °F /  21.9 °C 54.9 °F /  12.7 °C 30.1in /  1018.2hPa NNE 2.2mph /  3.5km/h 8.3mph /  13.4km/h 56% 0in /  0.0mm 361 W/m2
11:23 71.4 °F /  21.9 °C 53.4 °F /  11.9 °C 30.1in /  1017.8hPa NNE 6mph /  9.7km/h 9.8mph /  15.8km/h 53% 0in /  0.0mm 411 W/m2
11:28 71.6 °F /  22.0 °C 54.1 °F /  12.3 °C 30.1in /  1018.2hPa North 3.1mph /  5.0km/h 9.8mph /  15.8km/h 54% 0in /  0.0mm 370 W/m2
11:33 71.6 °F /  22.0 °C 53.6 °F /  12.0 °C 30.1in /  1017.8hPa NNE 5.4mph /  8.7km/h 9.8mph /  15.8km/h 53% 0in /  0.0mm 372 W/m2
11:38 71.1 °F /  21.7 °C 53.1 °F /  11.7 °C 30.1in /  1017.8hPa NNE 3.8mph /  6.1km/h 9.2mph /  14.8km/h 53% 0in /  0.0mm 317 W/m2
11:43 71.1 °F /  21.7 °C 52.5 °F /  11.4 °C 30.1in /  1017.5hPa NNW 2.2mph /  3.5km/h 7.6mph /  12.2km/h 52% 0in /  0.0mm 335 W/m2
11:45 71.1 °F /  21.7 °C 52.5 °F /  11.4 °C 30.1in /  1017.5hPa NNW 2.2mph /  3.5km/h 7.6mph /  12.2km/h 52% 0in /  0.0mm 359 W/m2
11:50 71.1 °F /  21.7 °C 53.6 °F /  12.0 °C 30.1in /  1017.5hPa NNW 1.6mph /  2.6km/h 7.6mph /  12.2km/h 54% 0in /  0.0mm 402 W/m2
11:55 71.6 °F /  22.0 °C 54.1 °F /  12.3 °C 30.1in /  1017.5hPa NNW 3.8mph /  6.1km/h 7.6mph /  12.2km/h 54% 0in /  0.0mm 415 W/m2
12:00 72 °F /  22.2 °C 54 °F /  12.2 °C 30in /  1017.2hPa NNW 1.6mph /  2.6km/h 10.7mph /  17.2km/h 53% 0in /  0.0mm 433 W/m2
12:05 72.3 °F /  22.4 °C 54.3 °F /  12.4 °C 30in /  1017.2hPa NNW 6mph /  9.7km/h 10.7mph /  17.2km/h 53% 0in /  0.0mm 416 W/m2
12:10 72.3 °F /  22.4 °C 53.8 °F /  12.1 °C 30in /  1017.2hPa NNW 3.8mph /  6.1km/h 9.2mph /  14.8km/h 52% 0in /  0.0mm 467 W/m2
12:15 72.7 °F /  22.6 °C 54.7 °F /  12.6 °C 30in /  1016.8hPa NNW 6mph /  9.7km/h 9.2mph /  14.8km/h 53% 0in /  0.0mm 503 W/m2
12:20 73.4 °F /  23.0 °C 54.7 °F /  12.6 °C 30in /  1016.8hPa North 6.9mph /  11.1km/h 9.2mph /  14.8km/h 52% 0in /  0.0mm 500 W/m2
12:25 73.6 °F /  23.1 °C 53.8 °F /  12.1 °C 30in /  1016.8hPa NNW 4.5mph /  7.2km/h 9.2mph /  14.8km/h 50% 0in /  0.0mm 539 W/m2
12:30 73 °F /  22.8 °C 54.3 °F /  12.4 °C 30in /  1016.8hPa NW 0.7mph /  1.1km/h 9.2mph /  14.8km/h 52% 0in /  0.0mm 475 W/m2
12:35 73.4 °F /  23.0 °C 54.1 °F /  12.3 °C 30in /  1016.8hPa NW 1.6mph /  2.6km/h 9.8mph /  15.8km/h 51% 0in /  0.0mm 506 W/m2
12:40 73.6 °F /  23.1 °C 54.9 °F /  12.7 °C 30in /  1016.8hPa NW 3.8mph /  6.1km/h 9.8mph /  15.8km/h 52% 0in /  0.0mm 482 W/m2
12:45 73.4 °F /  23.0 °C 54.1 °F /  12.3 °C 30in /  1016.8hPa Calm   8.3mph /  13.4km/h 51% 0in /  0.0mm 587 W/m2
12:50 74.7 °F /  23.7 °C 55.9 °F /  13.3 °C 30in /  1016.8hPa NW 6.9mph /  11.1km/h 12.1mph /  19.5km/h 52% 0in /  0.0mm 594 W/m2
12:55 74.5 °F /  23.6 °C 54.7 °F /  12.6 °C 30in /  1016.8hPa NW 1.6mph /  2.6km/h 12.1mph /  19.5km/h 50% 0in /  0.0mm 562 W/m2
13:00 75.2 °F /  24.0 °C 54.9 °F /  12.7 °C 30in /  1016.8hPa NW 3.1mph /  5.0km/h 12.1mph /  19.5km/h 49% 0in /  0.0mm 477 W/m2
13:05 75.2 °F /  24.0 °C 54.1 °F /  12.3 °C 30in /  1016.5hPa NW 4.5mph /  7.2km/h 9.8mph /  15.8km/h 48% 0in /  0.0mm 513 W/m2
13:10 74.3 °F /  23.5 °C 54.5 °F /  12.5 °C 30in /  1016.5hPa Calm   9.8mph /  15.8km/h 50% 0in /  0.0mm 485 W/m2
13:15 74.7 °F /  23.7 °C 54.9 °F /  12.7 °C 30in /  1016.5hPa NW 3.8mph /  6.1km/h 10.7mph /  17.2km/h 50% 0in /  0.0mm 456 W/m2
13:20 74.8 °F /  23.8 °C 55 °F /  12.8 °C 30in /  1016.5hPa NNW 1.6mph /  2.6km/h 10.7mph /  17.2km/h 50% 0in /  0.0mm 455 W/m2
13:25 75.2 °F /  24.0 °C 54.9 °F /  12.7 °C 30in /  1016.5hPa NNW 4.5mph /  7.2km/h 8.3mph /  13.4km/h 49% 0in /  0.0mm 418 W/m2
13:43 74.8 °F /  23.8 °C 56.1 °F /  13.4 °C 30in /  1016.1hPa Calm   9.2mph /  14.8km/h 52% 0in /  0.0mm 354 W/m2
13:48 74.5 °F /  23.6 °C 54.7 °F /  12.6 °C 30in /  1016.1hPa North 2.2mph /  3.5km/h 8.3mph /  13.4km/h 50% 0in /  0.0mm 400 W/m2
13:53 74.7 °F /  23.7 °C 54.9 °F /  12.7 °C 30in /  1016.1hPa NNW 0.7mph /  1.1km/h 8.3mph /  13.4km/h 50% 0in /  0.0mm 395 W/m2
13:58 75.4 °F /  24.1 °C 54.9 °F /  12.7 °C 30in /  1015.8hPa NW 1.6mph /  2.6km/h 8.3mph /  13.4km/h 49% 0in /  0.0mm 409 W/m2
14:03 75.4 °F /  24.1 °C 54.3 °F /  12.4 °C 30in /  1015.8hPa Calm   6mph /  9.7km/h 48% 0in /  0.0mm 437 W/m2
14:08 75.6 °F /  24.2 °C 54 °F /  12.2 °C 30in /  1016.1hPa NNW 0.7mph /  1.1km/h 7.6mph /  12.2km/h 47% 0in /  0.0mm 411 W/m2
14:14 75.6 °F /  24.2 °C 54.5 °F /  12.5 °C 30in /  1015.8hPa North 6mph /  9.7km/h 11.4mph /  18.3km/h 48% 0in /  0.0mm 501 W/m2
14:20 76.1 °F /  24.5 °C 54.3 °F /  12.4 °C 30in /  1015.8hPa NNW 6mph /  9.7km/h 11.4mph /  18.3km/h 47% 0in /  0.0mm 446 W/m2
14:25 75.6 °F /  24.2 °C 54 °F /  12.2 °C 30in /  1015.8hPa NNW 6.9mph /  11.1km/h 13.6mph /  21.9km/h 47% 0in /  0.0mm 376 W/m2
14:30 75.6 °F /  24.2 °C 54.5 °F /  12.5 °C 30in /  1016.1hPa NNW 5.4mph /  8.7km/h 13.6mph /  21.9km/h 48% 0in /  0.0mm 395 W/m2
14:35 75.2 °F /  24.0 °C 54.9 °F /  12.7 °C 30in /  1015.8hPa NNW 6.9mph /  11.1km/h 13.6mph /  21.9km/h 49% 0in /  0.0mm 439 W/m2
14:40 75.2 °F /  24.0 °C 54.1 °F /  12.3 °C 30in /  1015.8hPa NW 1.6mph /  2.6km/h 13.6mph /  21.9km/h 48% 0in /  0.0mm 446 W/m2
14:45 75.2 °F /  24.0 °C 54.1 °F /  12.3 °C 30in /  1015.8hPa NW 7.6mph /  12.2km/h 14.5mph /  23.3km/h 48% 0in /  0.0mm 419 W/m2
14:50 75.2 °F /  24.0 °C 55.2 °F /  12.9 °C 30in /  1015.8hPa NW 6.9mph /  11.1km/h 14.5mph /  23.3km/h 50% 0in /  0.0mm 356 W/m2
14:55 74.8 °F /  23.8 °C 55 °F /  12.8 °C 30in /  1015.8hPa NNW 5.4mph /  8.7km/h 13mph /  20.9km/h 50% 0in /  0.0mm 415 W/m2
15:00 75 °F /  23.9 °C 55.2 °F /  12.9 °C 30in /  1015.8hPa North 5.4mph /  8.7km/h 13mph /  20.9km/h 50% 0in /  0.0mm 406 W/m2
15:05 75 °F /  23.9 °C 54 °F /  12.2 °C 30in /  1015.5hPa North 5.4mph /  8.7km/h 11.4mph /  18.3km/h 48% 0in /  0.0mm 402 W/m2
15:10 75.4 °F /  24.1 °C 53.8 °F /  12.1 °C 30in /  1015.5hPa NNW 5.4mph /  8.7km/h 11.4mph /  18.3km/h 47% 0in /  0.0mm 391 W/m2
15:15 74.8 °F /  23.8 °C 54 °F /  12.2 °C 30in /  1015.1hPa NW 3.1mph /  5.0km/h 10.7mph /  17.2km/h 48% 0in /  0.0mm 273 W/m2
15:20 74.7 °F /  23.7 °C 54.3 °F /  12.4 °C 30in /  1015.1hPa NW 3.1mph /  5.0km/h 10.7mph /  17.2km/h 49% 0in /  0.0mm 307 W/m2
15:25 74.7 °F /  23.7 °C 54.3 °F /  12.4 °C 30in /  1015.5hPa NW 9.2mph /  14.8km/h 13mph /  20.9km/h 49% 0in /  0.0mm 231 W/m2
15:30 74.5 °F /  23.6 °C 54.1 °F /  12.3 °C 30in /  1015.1hPa NNW 2.2mph /  3.5km/h 13mph /  20.9km/h 49% 0in /  0.0mm 227 W/m2
15:35 75 °F /  23.9 °C 55.2 °F /  12.9 °C 30in /  1015.1hPa NNW 3.8mph /  6.1km/h 13mph /  20.9km/h 50% 0in /  0.0mm 217 W/m2
15:40 75.2 °F /  24.0 °C 54.1 °F /  12.3 °C 30in /  1015.1hPa North 5.4mph /  8.7km/h 10.7mph /  17.2km/h 48% 0in /  0.0mm 220 W/m2
15:45 75.2 °F /  24.0 °C 54.9 °F /  12.7 °C 30in /  1014.8hPa NNW 6mph /  9.7km/h 9.8mph /  15.8km/h 49% 0in /  0.0mm 245 W/m2
15:50 75.6 °F /  24.2 °C 55.6 °F /  13.1 °C 30in /  1014.8hPa NNW 3.1mph /  5.0km/h 10.7mph /  17.2km/h 50% 0in /  0.0mm 297 W/m2
15:55 76.3 °F /  24.6 °C 55.2 °F /  12.9 °C 30in /  1014.8hPa NNW 7.6mph /  12.2km/h 11.4mph /  18.3km/h 48% 0in /  0.0mm 351 W/m2
16:00 75.6 °F /  24.2 °C 54.5 °F /  12.5 °C 30in /  1014.8hPa North 5.4mph /  8.7km/h 13mph /  20.9km/h 48% 0in /  0.0mm 394 W/m2
16:05 75.4 °F /  24.1 °C 53.8 °F /  12.1 °C 30in /  1014.4hPa NNW 2.2mph /  3.5km/h 14.5mph /  23.3km/h 47% 0in /  0.0mm 301 W/m2
16:10 75.2 °F /  24.0 °C 53.6 °F /  12.0 °C 30in /  1014.4hPa NNW 3.8mph /  6.1km/h 14.5mph /  23.3km/h 47% 0in /  0.0mm 226 W/m2
16:15 75.2 °F /  24.0 °C 54.1 °F /  12.3 °C 30in /  1014.4hPa NNW 3.1mph /  5.0km/h 13mph /  20.9km/h 48% 0in /  0.0mm 295 W/m2
16:20 75.2 °F /  24.0 °C 54.1 °F /  12.3 °C 30in /  1014.4hPa NNW 4.5mph /  7.2km/h 10.7mph /  17.2km/h 48% 0in /  0.0mm 256 W/m2
16:25 75.2 °F /  24.0 °C 54.9 °F /  12.7 °C 30in /  1014.4hPa North 3.1mph /  5.0km/h 10.7mph /  17.2km/h 49% 0in /  0.0mm 309 W/m2
16:30 75.6 °F /  24.2 °C 54.5 °F /  12.5 °C 30in /  1014.4hPa North 3.1mph /  5.0km/h 10.7mph /  17.2km/h 48% 0in /  0.0mm 340 W/m2
16:35 76.3 °F /  24.6 °C 55.8 °F /  13.2 °C 30in /  1014.4hPa North 3.1mph /  5.0km/h 10.7mph /  17.2km/h 49% 0in /  0.0mm 218 W/m2
16:40 76.1 °F /  24.5 °C 54.3 °F /  12.4 °C 30in /  1014.4hPa NNW 3.8mph /  6.1km/h 10.7mph /  17.2km/h 47% 0in /  0.0mm 299 W/m2
16:45 76.1 °F /  24.5 °C 55 °F /  12.8 °C 29.9in /  1014.1hPa Calm   10.7mph /  17.2km/h 48% 0in /  0.0mm 292 W/m2
16:50 76.5 °F /  24.7 °C 54.9 °F /  12.7 °C 30in /  1014.4hPa NNW 4.5mph /  7.2km/h 15.2mph /  24.5km/h 47% 0in /  0.0mm 355 W/m2
16:55 77 °F /  25.0 °C 54.7 °F /  12.6 °C 30in /  1014.4hPa NNW 2.2mph /  3.5km/h 15.2mph /  24.5km/h 46% 0in /  0.0mm 286 W/m2
17:00 75.6 °F /  24.2 °C 53.4 °F /  11.9 °C 30in /  1014.4hPa NW 4.5mph /  7.2km/h 13.6mph /  21.9km/h 46% 0in /  0.0mm 257 W/m2
17:05 75.4 °F /  24.1 °C 53.2 °F /  11.8 °C 30in /  1014.4hPa NW 7.6mph /  12.2km/h 13.6mph /  21.9km/h 46% 0in /  0.0mm 170 W/m2
17:10 74.1 °F /  23.4 °C 53.2 °F /  11.8 °C 29.9in /  1014.1hPa NNW 4.5mph /  7.2km/h 14.5mph /  23.3km/h 48% 0in /  0.0mm 164 W/m2
17:15 74.1 °F /  23.4 °C 53.2 °F /  11.8 °C 29.9in /  1014.1hPa NW 6.9mph /  11.1km/h 14.5mph /  23.3km/h 48% 0in /  0.0mm 240 W/m2
17:20 74.5 °F /  23.6 °C 53.4 °F /  11.9 °C 29.9in /  1014.1hPa NW 2.2mph /  3.5km/h 12.1mph /  19.5km/h 48% 0in /  0.0mm 205 W/m2
17:25 74.5 °F /  23.6 °C 54.1 °F /  12.3 °C 30in /  1014.4hPa NNW 3.1mph /  5.0km/h 12.1mph /  19.5km/h 49% 0in /  0.0mm 183 W/m2
17:30 73.9 °F /  23.3 °C 53.1 °F /  11.7 °C 30in /  1014.4hPa NNW 6mph /  9.7km/h 16.8mph /  27.0km/h 48% 0in /  0.0mm 155 W/m2
17:35 73.6 °F /  23.1 °C 53.2 °F /  11.8 °C 30in /  1014.4hPa NNW 6mph /  9.7km/h 16.8mph /  27.0km/h 49% 0in /  0.0mm 140 W/m2
17:40 73.4 °F /  23.0 °C 53.8 °F /  12.1 °C 30in /  1014.8hPa NW 4.5mph /  7.2km/h 13mph /  20.9km/h 50% 0in /  0.0mm 130 W/m2
17:45 73 °F /  22.8 °C 54 °F /  12.2 °C 30in /  1014.4hPa NW 3.8mph /  6.1km/h 13.6mph /  21.9km/h 51% 0in /  0.0mm 118 W/m2
17:50 72.9 °F /  22.7 °C 54.9 °F /  12.7 °C 30in /  1014.4hPa NW 2.2mph /  3.5km/h 13.6mph /  21.9km/h 53% 0in /  0.0mm 101 W/m2
17:55 72.7 °F /  22.6 °C 54.1 °F /  12.3 °C 30in /  1014.4hPa NNW 5.4mph /  8.7km/h 10.7mph /  17.2km/h 52% 0in /  0.0mm 91 W/m2
18:00 72.1 °F /  22.3 °C 53.6 °F /  12.0 °C 30in /  1014.4hPa North 3.1mph /  5.0km/h 13.6mph /  21.9km/h 52% 0in /  0.0mm 86 W/m2
18:05 72 °F /  22.2 °C 54 °F /  12.2 °C 30in /  1014.4hPa North 2.2mph /  3.5km/h 13.6mph /  21.9km/h 53% 0in /  0.0mm 86 W/m2
18:10 71.8 °F /  22.1 °C 53.8 °F /  12.1 °C 29.9in /  1014.1hPa NNW 2.2mph /  3.5km/h 9.2mph /  14.8km/h 53% 0in /  0.0mm 78 W/m2
18:15 71.4 °F /  21.9 °C 54 °F /  12.2 °C 29.9in /  1014.1hPa NNW 4.5mph /  7.2km/h 9.2mph /  14.8km/h 54% 0in /  0.0mm 69 W/m2
18:20 71.2 °F /  21.8 °C 54.3 °F /  12.4 °C 29.9in /  1014.1hPa NNW 1.6mph /  2.6km/h 8.3mph /  13.4km/h 55% 0in /  0.0mm 66 W/m2
18:25 71.1 °F /  21.7 °C 54.7 °F /  12.6 °C 29.9in /  1014.1hPa NNW 5.4mph /  8.7km/h 10.7mph /  17.2km/h 56% 0in /  0.0mm 60 W/m2
18:30 70.9 °F /  21.6 °C 54.3 °F /  12.4 °C 29.9in /  1014.1hPa North 2.2mph /  3.5km/h 10.7mph /  17.2km/h 56% 0in /  0.0mm 53 W/m2
18:35 70.7 °F /  21.5 °C 54.7 °F /  12.6 °C 29.9in /  1014.1hPa North 3.1mph /  5.0km/h 10.7mph /  17.2km/h 57% 0in /  0.0mm 53 W/m2
18:40 70.7 °F /  21.5 °C 54.7 °F /  12.6 °C 29.9in /  1014.1hPa NNW 2.2mph /  3.5km/h 8.3mph /  13.4km/h 57% 0in /  0.0mm 52 W/m2
18:45 70.5 °F /  21.4 °C 55 °F /  12.8 °C 29.9in /  1014.1hPa NNW 3.8mph /  6.1km/h 8.3mph /  13.4km/h 58% 0in /  0.0mm 43 W/m2
18:50 70.3 °F /  21.3 °C 54.9 °F /  12.7 °C 29.9in /  1014.1hPa NNW 0.7mph /  1.1km/h 7.6mph /  12.2km/h 58% 0in /  0.0mm 33 W/m2
18:55 70.2 °F /  21.2 °C 54.7 °F /  12.6 °C 29.9in /  1013.8hPa NNW 0.7mph /  1.1km/h 6mph /  9.7km/h 58% 0in /  0.0mm 25 W/m2
19:00 69.8 °F /  21.0 °C 54.3 °F /  12.4 °C 29.9in /  1014.1hPa North 0.7mph /  1.1km/h 5.4mph /  8.7km/h 58% 0in /  0.0mm 17 W/m2
19:05 69.6 °F /  20.9 °C 55 °F /  12.8 °C 29.9in /  1013.8hPa North 0.7mph /  1.1km/h 5.4mph /  8.7km/h 60% 0in /  0.0mm 10 W/m2
19:10 69.3 °F /  20.7 °C 55.2 °F /  12.9 °C 29.9in /  1013.8hPa North 0.7mph /  1.1km/h 5.4mph /  8.7km/h 61% 0in /  0.0mm 7 W/m2
19:15 68.9 °F /  20.5 °C 55.8 °F /  13.2 °C 29.9in /  1013.8hPa North 1.6mph /  2.6km/h 5.4mph /  8.7km/h 63% 0in /  0.0mm 5 W/m2
19:20 68.7 °F /  20.4 °C 55.6 °F /  13.1 °C 29.9in /  1013.8hPa North 2.2mph /  3.5km/h 5.4mph /  8.7km/h 63% 0in /  0.0mm 3 W/m2
19:25 68.4 °F /  20.2 °C 55.8 °F /  13.2 °C 29.9in /  1013.8hPa North 0.7mph /  1.1km/h 5.4mph /  8.7km/h 64% 0in /  0.0mm 0 W/m2
19:30 68 °F /  20.0 °C 55.8 °F /  13.2 °C 29.9in /  1013.8hPa Calm   4.5mph /  7.2km/h 65% 0in /  0.0mm 0 W/m2
19:35 67.8 °F /  19.9 °C 56.5 °F /  13.6 °C 29.9in /  1013.8hPa Calm   3.1mph /  5.0km/h 67% 0in /  0.0mm 0 W/m2
19:40 67.5 °F /  19.7 °C 56.1 °F /  13.4 °C 29.9in /  1013.8hPa Calm   3.1mph /  5.0km/h 67% 0in /  0.0mm 0 W/m2
19:45 67.3 °F /  19.6 °C 55.9 °F /  13.3 °C 29.9in /  1013.8hPa North 0.7mph /  1.1km/h 2.2mph /  3.5km/h 67% 0in /  0.0mm 0 W/m2
19:50 66.9 °F /  19.4 °C 55.6 °F /  13.1 °C 29.9in /  1014.1hPa Calm   2.2mph /  3.5km/h 67% 0in /  0.0mm 0 W/m2
19:55 66.9 °F /  19.4 °C 55.6 °F /  13.1 °C 29.9in /  1013.8hPa Calm   2.2mph /  3.5km/h 67% 0in /  0.0mm 0 W/m2
20:00 66.7 °F /  19.3 °C 55.6 °F /  13.1 °C 29.9in /  1014.1hPa Calm   2.2mph /  3.5km/h 67% 0in /  0.0mm 0 W/m2
20:05 66.6 °F /  19.2 °C 55.2 °F /  12.9 °C 29.9in /  1014.1hPa Calm   2.2mph /  3.5km/h 67% 0in /  0.0mm 0 W/m2
20:10 66.4 °F /  19.1 °C 55.6 °F /  13.1 °C 29.9in /  1014.1hPa Calm   1.6mph /  2.6km/h 68% 0in /  0.0mm 0 W/m2
20:15 66 °F /  18.9 °C 55.6 °F /  13.1 °C 29.9in /  1014.1hPa Calm   1.6mph /  2.6km/h 69% 0in /  0.0mm 0 W/m2
20:20 66 °F /  18.9 °C 55.6 °F /  13.1 °C 29.9in /  1013.8hPa Calm   2.2mph /  3.5km/h 69% 0in /  0.0mm 0 W/m2
20:25 65.8 °F /  18.8 °C 55.8 °F /  13.2 °C 29.9in /  1014.1hPa North 1.6mph /  2.6km/h 3.8mph /  6.1km/h 70% 0in /  0.0mm 0 W/m2
20:30 65.7 °F /  18.7 °C 55.6 °F /  13.1 °C 29.9in /  1014.1hPa NNW 0.7mph /  1.1km/h 3.8mph /  6.1km/h 70% 0in /  0.0mm 0 W/m2
20:35 65.7 °F /  18.7 °C 55.6 °F /  13.1 °C 29.9in /  1014.1hPa Calm   3.8mph /  6.1km/h 70% 0in /  0.0mm 0 W/m2
20:40 65.7 °F /  18.7 °C 55.6 °F /  13.1 °C 29.9in /  1014.1hPa North 1.6mph /  2.6km/h 3.8mph /  6.1km/h 70% 0in /  0.0mm 0 W/m2
20:45 65.7 °F /  18.7 °C 55.6 °F /  13.1 °C 29.9in /  1014.1hPa North 0.7mph /  1.1km/h 4.5mph /  7.2km/h 70% 0in /  0.0mm 0 W/m2
20:50 65.5 °F /  18.6 °C 55.6 °F /  13.1 °C 30in /  1014.4hPa North 0.7mph /  1.1km/h 4.5mph /  7.2km/h 70% 0in /  0.0mm 0 W/m2
20:55 65.5 °F /  18.6 °C 55.6 °F /  13.1 °C 30in /  1014.4hPa North 0.7mph /  1.1km/h 4.5mph /  7.2km/h 70% 0in /  0.0mm 0 W/m2
21:00 65.5 °F /  18.6 °C 55.6 °F /  13.1 °C 30in /  1014.4hPa NNW 0.7mph /  1.1km/h 4.5mph /  7.2km/h 70% 0in /  0.0mm 0 W/m2
21:05 65.5 °F /  18.6 °C 55.6 °F /  13.1 °C 30in /  1014.4hPa Calm   4.5mph /  7.2km/h 70% 0in /  0.0mm 0 W/m2
21:10 65.5 °F /  18.6 °C 55.6 °F /  13.1 °C 30in /  1014.4hPa North 1.6mph /  2.6km/h 4.5mph /  7.2km/h 70% 0in /  0.0mm 0 W/m2
21:15 65.3 °F /  18.5 °C 55.2 °F /  12.9 °C 30in /  1014.4hPa North 0.7mph /  1.1km/h 4.5mph /  7.2km/h 70% 0in /  0.0mm 0 W/m2
21:20 65.1 °F /  18.4 °C 55.6 °F /  13.1 °C 30in /  1014.4hPa Calm   3.8mph /  6.1km/h 71% 0in /  0.0mm 0 W/m2
21:25 64.9 °F /  18.3 °C 55.2 °F /  12.9 °C 30in /  1014.4hPa North 1.6mph /  2.6km/h 3.8mph /  6.1km/h 71% 0in /  0.0mm 0 W/m2
21:30 64.8 °F /  18.2 °C 55.6 °F /  13.1 °C 30in /  1014.4hPa Calm   3.8mph /  6.1km/h 72% 0in /  0.0mm 0 W/m2
21:35 64.6 °F /  18.1 °C 55.4 °F /  13.0 °C 30in /  1014.4hPa North 0.7mph /  1.1km/h 3.8mph /  6.1km/h 72% 0in /  0.0mm 0 W/m2
21:40 64.2 °F /  17.9 °C 55.4 °F /  13.0 °C 30in /  1014.4hPa Calm   3.8mph /  6.1km/h 73% 0in /  0.0mm 0 W/m2
21:45 64 °F /  17.8 °C 55.2 °F /  12.9 °C 30in /  1014.8hPa Calm   3.8mph /  6.1km/h 73% 0in /  0.0mm 0 W/m2
21:50 64 °F /  17.8 °C 55.2 °F /  12.9 °C 30in /  1014.4hPa North 0.7mph /  1.1km/h 3.8mph /  6.1km/h 73% 0in /  0.0mm 0 W/m2
21:55 63.9 °F /  17.7 °C 55 °F /  12.8 °C 30in /  1014.4hPa North 0.7mph /  1.1km/h 3.8mph /  6.1km/h 73% 0in /  0.0mm 0 W/m2
22:00 64 °F /  17.8 °C 55.2 °F /  12.9 °C 30in /  1014.8hPa Calm   3.8mph /  6.1km/h 73% 0in /  0.0mm 0 W/m2
22:05 63.9 °F /  17.7 °C 54.7 °F /  12.6 °C 30in /  1014.8hPa Calm   3.8mph /  6.1km/h 72% 0in /  0.0mm 0 W/m2
22:10 63.9 °F /  17.7 °C 54.7 °F /  12.6 °C 30in /  1014.4hPa Calm   2.2mph /  3.5km/h 72% 0in /  0.0mm 0 W/m2
22:15 63.7 °F /  17.6 °C 54.5 °F /  12.5 °C 30in /  1014.8hPa North 0.7mph /  1.1km/h 3.1mph /  5.0km/h 72% 0in /  0.0mm 0 W/m2
22:20 63.7 °F /  17.6 °C 54.5 °F /  12.5 °C 30in /  1014.8hPa Calm   3.1mph /  5.0km/h 72% 0in /  0.0mm 0 W/m2
22:25 63.5 °F /  17.5 °C 54.3 °F /  12.4 °C 30in /  1014.8hPa North 0.7mph /  1.1km/h 3.1mph /  5.0km/h 72% 0in /  0.0mm 0 W/m2
22:30 63.3 °F /  17.4 °C 54.1 °F /  12.3 °C 30in /  1014.8hPa NNW 0.7mph /  1.1km/h 3.8mph /  6.1km/h 72% 0in /  0.0mm 0 W/m2
22:35 63.3 °F /  17.4 °C 54.1 °F /  12.3 °C 30in /  1014.8hPa North 0.7mph /  1.1km/h 3.8mph /  6.1km/h 72% 0in /  0.0mm 0 W/m2
22:40 63.3 °F /  17.4 °C 54.1 °F /  12.3 °C 30in /  1014.8hPa North 0.7mph /  1.1km/h 3.8mph /  6.1km/h 72% 0in /  0.0mm 0 W/m2
22:45 63.1 °F /  17.3 °C 54 °F /  12.2 °C 30in /  1014.8hPa North 0.7mph /  1.1km/h 3.8mph /  6.1km/h 72% 0in /  0.0mm 0 W/m2
22:50 63.1 °F /  17.3 °C 54 °F /  12.2 °C 30in /  1014.4hPa North 0.7mph /  1.1km/h 3.8mph /  6.1km/h 72% 0in /  0.0mm 0 W/m2
23:07 63.1 °F /  17.3 °C 54 °F /  12.2 °C 30in /  1014.4hPa North 0.7mph /  1.1km/h 4.5mph /  7.2km/h 72% 0in /  0.0mm 0 W/m2
23:12 63.1 °F /  17.3 °C 54 °F /  12.2 °C 29.9in /  1014.1hPa Calm   5.4mph /  8.7km/h 72% 0in /  0.0mm 0 W/m2
23:17 63.3 °F /  17.4 °C 54.1 °F /  12.3 °C 29.9in /  1014.1hPa NNW 0.7mph /  1.1km/h 5.4mph /  8.7km/h 72% 0in /  0.0mm 0 W/m2
23:22 63.3 °F /  17.4 °C 54.1 °F /  12.3 °C 29.9in /  1014.1hPa North 0.7mph /  1.1km/h 4.5mph /  7.2km/h 72% 0in /  0.0mm 0 W/m2
23:27 63.7 °F /  17.6 °C 54.1 °F /  12.3 °C 29.9in /  1014.1hPa North 1.6mph /  2.6km/h 4.5mph /  7.2km/h 71% 0in /  0.0mm 0 W/m2
23:32 63.9 °F /  17.7 °C 54.3 °F /  12.4 °C 29.9in /  1014.1hPa Calm   5.4mph /  8.7km/h 71% 0in /  0.0mm 0 W/m2
23:37 63.7 °F /  17.6 °C 54.1 °F /  12.3 °C 29.9in /  1014.1hPa Calm   5.4mph /  8.7km/h 71% 0in /  0.0mm 0 W/m2
23:42 63.3 °F /  17.4 °C 53.8 °F /  12.1 °C 29.9in /  1014.1hPa North 1.6mph /  2.6km/h 3.1mph /  5.0km/h 71% 0in /  0.0mm 0 W/m2
23:47 63 °F /  17.2 °C 53.8 °F /  12.1 °C 29.9in /  1014.1hPa NNE 0.7mph /  1.1km/h 4.5mph /  7.2km/h 72% 0in /  0.0mm 0 W/m2
23:52 62.4 °F /  16.9 °C 54 °F /  12.2 °C 29.9in /  1014.1hPa North 1.6mph /  2.6km/h 5.4mph /  8.7km/h 74% 0in /  0.0mm 0 W/m2
23:57 62.4 °F /  16.9 °C 54 °F /  12.2 °C 29.9in /  1014.1hPa NNW 0.7mph /  1.1km/h 5.4mph /  8.7km/h 74% 0in /  0.0mm 0 W/m2
Northern Hawkes Bay. New Zealand Historic Data
Compliments of Weather Underground - 2 mb